Time;durP1;ratioP1;P1;durP2;ratioP2;P2;SDS_P1;SDS_P2;PMS_P1;PMS_P2;Temp;Humidity;BMP_temperature;BMP_pressure;BME280_temperature;BME280_humidity;BME280_pressure;Samples;Min_cycle;Max_cycle;Signal;HPM_P1;HPM_P2
2022/09/17 00:01:20;;;;;;;9.80;1.90;;;12.30;99.90;;;;;;7341892;19;109236;-77
2022/09/17 00:03:54;;;;;;;11.55;1.52;;;12.30;99.90;;;;;;7338472;19;109025;-76
2022/09/17 00:06:23;;;;;;;10.30;1.73;;;12.30;99.90;;;;;;7340303;19;108691;-77
2022/09/17 00:08:52;;;;;;;7.13;1.67;;;12.40;99.90;;;;;;7339934;19;109356;-77
2022/09/17 00:11:29;;;;;;;10.52;1.92;;;12.30;99.90;;;;;;7337259;19;110247;-75
2022/09/17 00:13:58;;;;;;;10.73;2.15;;;12.30;99.90;;;;;;7338564;19;109094;-76
2022/09/17 00:16:35;;;;;;;8.82;1.58;;;12.40;99.90;;;;;;7337344;19;108529;-76
2022/09/17 00:19:04;;;;;;;12.32;1.65;;;12.40;99.90;;;;;;7337657;19;109642;-77
2022/09/17 00:21:31;;;;;;;9.40;1.60;;;12.50;99.90;;;;;;7346051;19;108778;-77
2022/09/17 00:24:01;;;;;;;9.07;1.40;;;12.40;99.90;;;;;;7336737;19;110258;-75
2022/09/17 00:26:31;;;;;;;10.90;1.60;;;12.50;99.90;;;;;;7336194;19;109448;-75
2022/09/17 00:28:58;;;;;;;7.32;1.70;;;12.50;99.90;;;;;;7338045;19;109772;-75
2022/09/17 00:31:27;;;;;;;10.93;1.30;;;12.50;99.90;;;;;;7336786;19;110254;-79
2022/09/17 00:33:54;;;;;;;16.73;1.98;;;12.60;99.90;;;;;;7334043;19;109540;-76
2022/09/17 00:36:22;;;;;;;8.85;1.33;;;12.50;99.90;;;;;;7335089;19;109715;-78
2022/09/17 00:38:50;;;;;;;7.03;1.10;;;12.60;99.90;;;;;;7336836;19;110405;-78
2022/09/17 00:41:18;;;;;;;9.02;1.63;;;12.60;99.90;;;;;;7336430;19;108876;-76
2022/09/17 00:43:50;;;;;;;8.00;1.10;;;12.60;99.90;;;;;;7341064;19;110087;-79
2022/09/17 00:46:17;;;;;;;8.25;1.65;;;12.60;99.90;;;;;;7336753;19;109297;-74
2022/09/17 00:48:45;;;;;;;13.35;1.38;;;12.70;99.90;;;;;;7335191;19;108369;-76
2022/09/17 00:51:16;;;;;;;10.63;1.50;;;12.70;99.90;;;;;;7336929;19;109362;-76
2022/09/17 00:53:43;;;;;;;14.93;1.55;;;12.70;99.90;;;;;;7338747;19;110219;-79
2022/09/17 00:56:26;;;;;;;11.18;1.60;;;12.70;99.90;;;;;;7337084;19;110013;-75
2022/09/17 00:58:54;;;;;;;11.95;1.63;;;12.70;99.90;;;;;;7338917;19;110465;-77
2022/09/17 01:01:21;;;;;;;13.75;1.65;;;12.70;99.90;;;;;;7338739;19;109108;-75
2022/09/17 01:03:48;;;;;;;8.52;1.63;;;12.70;99.90;;;;;;7336244;19;111847;-74
2022/09/17 01:06:31;;;;;;;9.77;1.38;;;12.70;99.90;;;;;;7340214;19;110398;-75
2022/09/17 01:09:03;;;;;;;11.25;1.77;;;12.70;99.90;;;;;;7338500;19;108720;-74
2022/09/17 01:12:06;;;;;;;7.97;2.00;;;12.60;99.90;;;;;;7336352;19;109437;-74
2022/09/17 01:14:57;;;;;;;11.30;1.80;;;12.60;99.90;;;;;;7332349;19;108800;-74
2022/09/17 01:17:49;;;;;;;11.25;2.10;;;12.60;99.90;;;;;;7331177;19;108552;-74
2022/09/17 01:20:41;;;;;;;9.00;1.63;;;12.60;99.90;;;;;;7331605;19;109427;-74
2022/09/17 01:23:28;;;;;;;7.95;1.45;;;12.60;99.90;;;;;;7332469;19;109041;-75
2022/09/17 01:26:35;;;;;;;7.90;1.38;;;12.60;99.90;;;;;;7331646;19;109252;-74
2022/09/17 01:29:32;;;;;;;9.68;1.60;;;12.60;99.90;;;;;;7332383;19;110266;-74
2022/09/17 01:32:20;;;;;;;10.02;2.05;;;12.60;99.90;;;;;;7337716;19;109032;-74
2022/09/17 01:35:04;;;;;;;11.95;1.70;;;12.60;99.90;;;;;;7333510;19;110302;-74
2022/09/17 01:37:39;;;;;;;5.40;1.52;;;12.60;99.90;;;;;;7332151;19;108456;-74
2022/09/17 01:40:24;;;;;;;13.20;1.65;;;12.60;99.90;;;;;;7331558;19;108908;-75
2022/09/17 01:43:11;;;;;;;9.15;1.30;;;12.60;99.90;;;;;;7331059;19;109150;-75
2022/09/17 01:45:46;;;;;;;15.38;1.70;;;12.60;99.90;;;;;;7331672;19;108820;-76
2022/09/17 01:48:19;;;;;;;8.32;1.25;;;12.60;99.90;;;;;;7330540;19;109754;-74
2022/09/17 01:50:52;;;;;;;9.02;1.30;;;12.50;99.90;;;;;;7331697;19;109313;-74
2022/09/17 01:53:23;;;;;;;6.85;1.30;;;12.50;99.90;;;;;;7333581;19;108767;-75
2022/09/17 01:55:53;;;;;;;8.30;1.77;;;12.60;99.90;;;;;;7341541;19;112383;-74
2022/09/17 01:58:34;;;;;;;11.73;1.27;;;12.70;99.90;;;;;;7334477;19;108531;-74
2022/09/17 02:01:05;;;;;;;12.98;1.50;;;12.70;99.90;;;;;;7334628;19;109143;-74
2022/09/17 02:04:05;;;;;;;10.80;1.40;;;12.70;99.90;;;;;;7335039;19;111511;-74
2022/09/17 02:06:37;;;;;;;8.80;1.38;;;12.70;99.90;;;;;;7333173;19;110319;-74
2022/09/17 02:09:11;;;;;;;10.38;1.00;;;12.70;99.90;;;;;;7334111;19;109608;-74
2022/09/17 02:11:46;;;;;;;8.40;1.40;;;12.80;99.90;;;;;;7334493;19;109614;-74
2022/09/17 02:14:34;;;;;;;8.02;1.40;;;12.80;99.90;;;;;;7332658;19;108738;-74
2022/09/17 02:17:37;;;;;;;8.25;1.45;;;12.80;99.90;;;;;;7339756;19;109488;-74
2022/09/17 02:20:05;;;;;;;10.65;1.40;;;12.80;99.90;;;;;;7332852;19;108541;-74
2022/09/17 02:22:35;;;;;;;11.07;1.27;;;12.80;99.90;;;;;;7333088;19;109879;-74
2022/09/17 02:25:46;;;;;;;12.93;1.50;;;12.80;99.90;;;;;;7334630;19;109698;-74
2022/09/17 02:28:37;;;;;;;9.05;1.45;;;12.80;99.90;;;;;;7330492;19;109070;-74
2022/09/17 02:31:04;;;;;;;9.82;1.30;;;12.80;99.90;;;;;;7333436;19;108947;-75
2022/09/17 02:33:34;;;;;;;8.85;1.40;;;12.80;99.90;;;;;;7333724;19;109794;-75
2022/09/17 02:36:02;;;;;;;10.48;1.20;;;12.90;99.90;;;;;;7334726;19;108661;-74
2022/09/17 02:38:30;;;;;;;7.13;1.25;;;12.80;99.90;;;;;;7333786;19;109041;-74
2022/09/17 02:41:18;;;;;;;9.02;1.20;;;12.80;99.90;;;;;;7337294;19;111538;-74
2022/09/17 02:44:20;;;;;;;9.52;1.45;;;12.90;99.90;;;;;;7333540;19;110027;-74
2022/09/17 02:47:09;;;;;;;8.55;1.17;;;12.80;99.90;;;;;;7332718;19;110297;-77
2022/09/17 02:49:49;;;;;;;8.77;1.38;;;12.80;99.90;;;;;;7333258;19;108701;-74
2022/09/17 02:52:19;;;;;;;9.60;1.33;;;12.80;99.90;;;;;;7333392;19;109539;-74
2022/09/17 02:55:00;;;;;;;7.78;1.20;;;12.80;99.90;;;;;;7334018;19;111456;-74
2022/09/17 02:57:39;;;;;;;8.15;1.30;;;12.80;99.90;;;;;;7332088;19;109055;-74
2022/09/17 03:00:16;;;;;;;9.38;1.20;;;12.80;99.90;;;;;;7333189;19;108428;-75
2022/09/17 03:02:57;;;;;;;6.43;1.20;;;12.80;99.90;;;;;;7335618;19;112091;-73
2022/09/17 03:05:26;;;;;;;6.68;1.10;;;12.80;99.90;;;;;;7342773;19;109693;-75
2022/09/17 03:07:55;;;;;;;7.70;1.23;;;12.80;99.90;;;;;;7339632;19;111083;-75
2022/09/17 03:10:22;;;;;;;10.45;1.23;;;12.70;99.90;;;;;;7336963;19;109955;-74
2022/09/17 03:12:52;;;;;;;8.50;1.10;;;12.70;99.90;;;;;;7338996;19;108686;-74
2022/09/17 03:15:19;;;;;;;8.07;1.27;;;12.70;99.90;;;;;;7339864;19;110366;-74
2022/09/17 03:17:46;;;;;;;7.03;1.23;;;12.60;99.90;;;;;;7339759;19;108748;-74
2022/09/17 03:20:19;;;;;;;9.65;1.00;;;12.60;99.90;;;;;;7339490;19;113219;-75
2022/09/17 03:22:46;;;;;;;8.20;1.58;;;12.60;99.90;;;;;;7340345;19;110209;-74
2022/09/17 03:25:13;;;;;;;9.00;1.60;;;12.60;99.90;;;;;;7341780;19;108669;-74
2022/09/17 03:27:40;;;;;;;8.27;1.10;;;12.50;99.90;;;;;;7345374;19;109496;-74
2022/09/17 03:30:07;;;;;;;;;;;12.50;99.90;;;;;;7341544;19;108374;-74
2022/09/17 03:32:34;;;;;;;9.70;1.20;;;12.40;99.90;;;;;;7343931;19;109473;-75
2022/09/17 03:35:00;;;;;;;;;;;12.40;99.90;;;;;;7341637;19;109738;-75
2022/09/17 03:37:28;;;;;;;11.40;1.60;;;12.30;99.90;;;;;;7342446;19;108976;-74
2022/09/17 03:39:58;;;;;;;8.18;1.55;;;12.30;99.90;;;;;;7339927;19;113228;-74
2022/09/17 03:42:26;;;;;;;11.10;1.88;;;12.30;99.90;;;;;;7339529;19;109710;-74
2022/09/17 03:44:53;;;;;;;;;;;12.30;99.90;;;;;;7339725;19;108644;-74
2022/09/17 03:47:23;;;;;;;6.90;1.45;;;12.30;99.90;;;;;;7340484;19;109882;-75
2022/09/17 03:49:51;;;;;;;13.18;1.65;;;12.30;99.90;;;;;;7347967;19;111459;-73
2022/09/17 03:52:18;;;;;;;9.93;1.60;;;12.30;99.90;;;;;;7338442;19;108791;-74
2022/09/17 03:54:45;;;;;;;12.45;1.50;;;12.20;99.90;;;;;;7341326;19;110583;-74
2022/09/17 03:57:12;;;;;;;14.73;1.80;;;12.30;99.90;;;;;;7338986;19;109220;-74
2022/09/17 03:59:39;;;;;;;;;;;12.20;99.90;;;;;;7340849;19;108951;-75
2022/09/17 04:02:05;;;;;;;9.68;1.25;;;12.10;99.90;;;;;;7338542;19;109347;-74
2022/09/17 04:04:33;;;;;;;12.15;1.80;;;12.00;99.90;;;;;;7340311;19;109631;-76
2022/09/17 04:06:59;;;;;;;;;;;12.10;99.90;;;;;;7339851;19;109859;-75
2022/09/17 04:09:26;;;;;;;;;;;12.10;99.90;;;;;;7341413;19;113402;-75
2022/09/17 04:11:53;;;;;;;;;;;12.10;99.90;;;;;;7348278;19;108933;-74
2022/09/17 04:14:20;;;;;;;;;;;12.00;99.90;;;;;;7340256;19;110006;-75
2022/09/17 04:16:47;;;;;;;;;;;12.00;99.90;;;;;;7340963;19;108494;-74
2022/09/17 04:19:14;;;;;;;;;;;12.00;99.90;;;;;;7342000;19;109214;-74
2022/09/17 04:21:40;;;;;;;;;;;12.00;99.90;;;;;;7343157;19;110292;-74
2022/09/17 04:24:07;;;;;;;;;;;12.00;99.90;;;;;;7340823;19;109844;-75
2022/09/17 04:26:34;;;;;;;;;;;12.10;99.90;;;;;;7340995;19;108360;-76
2022/09/17 04:29:01;;;;;;;;;;;12.10;99.90;;;;;;7343519;19;113402;-74
2022/09/17 04:31:28;;;;;;;;;;;12.10;99.90;;;;;;7345755;19;108459;-75
2022/09/17 04:33:55;;;;;;;;;;;12.10;99.90;;;;;;7340107;19;109279;-74
2022/09/17 04:36:22;;;;;;;;;;;12.10;99.90;;;;;;7340905;19;108757;-74
2022/09/17 04:38:49;;;;;;;;;;;12.10;99.90;;;;;;7341996;19;108767;-74
2022/09/17 04:41:16;;;;;;;;;;;12.20;99.90;;;;;;7340601;19;110123;-74
2022/09/17 04:43:43;;;;;;;;;;;12.20;99.90;;;;;;7339637;19;108886;-74
2022/09/17 04:46:10;;;;;;;;;;;12.20;99.90;;;;;;7339371;19;109530;-75
2022/09/17 04:48:37;;;;;;;;;;;12.20;99.90;;;;;;7341214;19;111205;-75
2022/09/17 04:51:04;;;;;;;;;;;12.20;99.90;;;;;;7342263;19;108345;-75
2022/09/17 04:53:31;;;;;;;;;;;12.20;99.90;;;;;;7346481;19;108317;-75
2022/09/17 04:55:58;;;;;;;;;;;12.20;99.90;;;;;;7342585;19;108461;-75
2022/09/17 04:58:25;;;;;;;;;;;12.20;99.90;;;;;;7340375;19;108538;-75
2022/09/17 05:00:52;;;;;;;;;;;12.20;99.90;;;;;;7340764;19;110155;-74
2022/09/17 05:03:19;;;;;;;;;;;12.30;99.90;;;;;;7339224;19;111914;-76
2022/09/17 05:05:45;;;;;;;;;;;12.20;99.90;;;;;;7340314;19;109145;-75
2022/09/17 05:08:12;;;;;;;;;;;12.30;99.90;;;;;;7340382;19;109332;-76
2022/09/17 05:10:39;;;;;;;;;;;12.30;99.90;;;;;;7343526;19;108934;-76
2022/09/17 05:13:06;;;;;;;;;;;12.20;99.90;;;;;;7341228;19;109335;-77
2022/09/17 05:15:33;;;;;;;;;;;12.30;99.90;;;;;;7347488;19;110387;-77
2022/09/17 05:18:00;;;;;;;;;;;12.30;99.90;;;;;;7342190;19;111420;-77
2022/09/17 05:20:26;;;;;;;;;;;12.30;99.90;;;;;;7342658;19;109889;-77
2022/09/17 05:22:54;;;;;;;;;;;12.20;99.90;;;;;;7340991;19;108613;-75
2022/09/17 05:25:23;;;;;;;;;;;12.30;99.90;;;;;;7338596;19;109386;-75
2022/09/17 05:27:51;;;;;;;;;;;12.20;99.90;;;;;;7341595;19;110447;-75
2022/09/17 05:30:18;;;;;;;;;;;12.30;99.90;;;;;;7338979;19;108356;-75
2022/09/17 05:32:45;;;;;;;;;;;12.20;99.90;;;;;;7341548;19;109705;-75
2022/09/17 05:35:13;;;;;;;;;;;12.20;99.90;;;;;;7339019;19;110609;-74
2022/09/17 05:37:40;;;;;;;;;;;12.20;99.90;;;;;;7346340;19;108464;-74
2022/09/17 05:40:07;;;;;;;;;;;12.20;99.90;;;;;;7341204;19;112879;-74
2022/09/17 05:42:34;;;;;;;;;;;12.20;99.90;;;;;;7339826;19;108455;-74
2022/09/17 05:45:01;;;;;;;;;;;12.20;99.90;;;;;;7340936;19;110745;-76
2022/09/17 05:47:28;;;;;;;;;;;12.20;99.90;;;;;;7339272;19;112365;-74
2022/09/17 05:49:56;;;;;;;;;;;12.20;99.90;;;;;;7341677;19;108808;-74
2022/09/17 05:52:25;;;;;;;;;;;12.20;99.90;;;;;;7341961;19;109195;-74
2022/09/17 05:54:52;;;;;;;;;;;12.20;99.90;;;;;;7340272;19;110295;-75
2022/09/17 05:57:19;;;;;;;;;;;12.20;99.90;;;;;;7339187;19;108842;-72
2022/09/17 05:59:46;;;;;;;;;;;12.20;99.90;;;;;;7341995;19;108566;-74
2022/09/17 06:02:13;;;;;;;;;;;12.20;99.90;;;;;;7338309;19;108400;-73
2022/09/17 06:04:40;;;;;;;;;;;12.20;99.90;;;;;;7338910;19;109971;-74
2022/09/17 06:07:08;;;;;;;;;;;12.20;99.90;;;;;;7337563;19;110126;-75
2022/09/17 06:09:39;;;;;;;;;;;12.20;99.90;;;;;;7339579;19;108814;-75
2022/09/17 06:12:07;;;;;;;;;;;12.20;99.90;;;;;;7339430;19;110444;-74
2022/09/17 06:14:33;;;;;;;;;;;12.20;99.90;;;;;;7339384;19;109897;-74
2022/09/17 06:17:00;;;;;;;;;;;12.20;99.90;;;;;;7338527;19;109139;-74
2022/09/17 06:19:27;;;;;;;;;;;12.30;99.90;;;;;;7337422;19;109675;-74
2022/09/17 06:21:54;;;;;;;;;;;12.30;99.90;;;;;;7344421;19;110217;-74
2022/09/17 06:24:21;;;;;;;;;;;12.30;99.90;;;;;;7340201;19;111803;-74
2022/09/17 06:26:48;;;;;;;;;;;12.30;99.90;;;;;;7336332;19;110357;-73
2022/09/17 06:29:15;;;;;;;;;;;12.30;99.90;;;;;;7338554;19;109377;-74
2022/09/17 06:31:43;;;;;;;;;;;12.40;99.90;;;;;;7338481;19;108607;-74
2022/09/17 06:34:10;;;;;;;;;;;12.40;99.90;;;;;;7336653;19;110216;-74
2022/09/17 06:36:38;;;;;;;;;;;12.40;99.90;;;;;;7340222;19;109296;-74
2022/09/17 06:39:05;;;;;;;;;;;12.50;99.90;;;;;;7344555;19;109996;-74
2022/09/17 06:41:32;;;;;;;;;;;12.50;99.90;;;;;;7349063;19;109757;-73
2022/09/17 06:43:59;;;;;;;;;;;12.50;99.90;;;;;;7344180;19;108577;-74
2022/09/17 06:46:26;;;;;;;;;;;12.50;99.90;;;;;;7342857;19;110267;-73
2022/09/17 06:48:53;;;;;;;;;;;12.60;99.90;;;;;;7345291;19;108800;-74
2022/09/17 06:51:21;;;;;;;;;;;12.70;99.90;;;;;;7344058;19;108389;-73
2022/09/17 06:53:48;;;;;;;;;;;12.70;99.90;;;;;;7343619;19;110847;-73
2022/09/17 06:56:15;;;;;;;;;;;12.80;99.90;;;;;;7344937;19;109273;-74
2022/09/17 06:58:42;;;;;;;;;;;12.80;99.90;;;;;;7345695;19;109455;-74
2022/09/17 07:01:10;;;;;;;;;;;12.90;99.90;;;;;;7342957;19;109242;-74
2022/09/17 07:03:38;;;;;;;;;;;12.90;99.90;;;;;;7349605;19;109010;-73
2022/09/17 07:06:08;;;;;;;;;;;13.00;99.90;;;;;;7342773;19;110591;-74
2022/09/17 07:08:35;;;;;;;;;;;13.00;99.90;;;;;;7344602;19;108421;-74
2022/09/17 07:11:02;;;;;;;;;;;13.00;99.90;;;;;;7344559;19;108608;-73
2022/09/17 07:13:29;;;;;;;;;;;13.10;99.90;;;;;;7344740;19;109439;-74
2022/09/17 07:15:57;;;;;;;;;;;13.10;99.90;;;;;;7345879;19;108591;-75
2022/09/17 07:18:25;;;;;;;;;;;13.10;99.90;;;;;;7342762;19;110321;-74
2022/09/17 07:20:59;;;;;;;;;;;13.20;99.90;;;;;;7343018;19;113017;-74
2022/09/17 07:23:27;;;;;;;;;;;13.20;99.90;;;;;;7343338;19;108669;-73
2022/09/17 07:25:55;;;;;;;;;;;13.30;99.90;;;;;;7350341;19;108522;-74
2022/09/17 07:28:22;;;;;;;;;;;13.30;99.90;;;;;;7343148;19;108359;-75
2022/09/17 07:30:50;;;;;;;;;;;13.30;99.90;;;;;;7343850;19;109538;-73
2022/09/17 07:33:22;;;;;;;;;;;13.30;99.90;;;;;;7344030;19;112859;-74
2022/09/17 07:35:52;;;;;;;;;;;13.40;99.90;;;;;;7343904;19;108779;-73
2022/09/17 07:38:19;;;;;;;;;;;13.60;99.90;;;;;;7343678;19;109621;-74
2022/09/17 07:41:05;;;;;;;;;;;13.70;99.90;;;;;;7343080;19;109311;-73
2022/09/17 07:43:33;;;;;;;;;;;13.90;99.90;;;;;;7343540;19;108383;-73
2022/09/17 07:46:02;;;;;;;;;;;13.90;99.90;;;;;;7342717;19;108505;-74
2022/09/17 07:48:29;;;;;;;;;;;14.00;99.90;;;;;;7346687;19;116532;-75
2022/09/17 07:50:56;;;;;;;;;;;14.00;99.90;;;;;;7342543;19;109195;-73
2022/09/17 07:53:23;;;;;;;;;;;14.00;99.90;;;;;;7341901;19;109165;-74
2022/09/17 07:55:51;;;;;;;;;;;14.00;99.90;;;;;;7342509;19;108406;-74
2022/09/17 07:58:18;;;;;;;;;;;14.10;99.90;;;;;;7342029;19;108676;-72
2022/09/17 08:00:45;;;;;;;;;;;14.20;99.90;;;;;;7341562;19;110202;-73
2022/09/17 08:03:12;;;;;;;;;;;14.30;99.90;;;;;;7341846;19;108353;-73
2022/09/17 08:05:39;;;;;;;;;;;14.40;99.90;;;;;;7342305;19;110008;-73
2022/09/17 08:08:06;;;;;;;;;;;14.40;99.90;;;;;;7341758;19;110192;-74
2022/09/17 08:10:33;;;;;;;;;;;14.50;99.90;;;;;;7347171;19;108786;-73
2022/09/17 08:13:00;;;;;;;;;;;14.50;99.90;;;;;;7343971;19;110446;-74
2022/09/17 08:15:27;;;;;;;;;;;14.60;99.90;;;;;;7338744;19;108824;-74
2022/09/17 08:17:54;;;;;;;;;;;14.70;99.90;;;;;;7341496;19;109120;-74
2022/09/17 08:20:23;;;;;;;;;;;14.70;99.90;;;;;;7338592;19;109336;-73
2022/09/17 08:22:49;;;;;;;;;;;14.70;99.90;;;;;;7342225;19;108947;-73
2022/09/17 08:25:16;;;;;;;;;;;14.80;99.90;;;;;;7342466;19;109192;-73
2022/09/17 08:27:43;;;;;;;;;;;14.80;99.90;;;;;;7341633;19;110783;-73
2022/09/17 08:30:10;;;;;;;;;;;14.80;99.90;;;;;;7340934;19;108817;-76
2022/09/17 08:32:37;;;;;;;;;;;14.90;99.90;;;;;;7345703;19;109819;-75
2022/09/17 08:35:04;;;;;;;;;;;15.00;99.90;;;;;;7341002;19;109005;-75
2022/09/17 08:37:31;;;;;;;;;;;15.00;99.90;;;;;;7341778;19;109265;-75
2022/09/17 08:39:58;;;;;;;;;;;15.10;99.90;;;;;;7340100;19;112576;-75
2022/09/17 08:42:25;;;;;;;;;;;15.20;99.90;;;;;;7340525;19;108443;-73
2022/09/17 08:44:54;;;;;;;;;;;15.20;99.90;;;;;;7340892;19;108643;-75
2022/09/17 08:47:42;;;;;;;;;;;15.30;99.90;;;;;;7340033;19;110479;-75
2022/09/17 08:50:38;;;;;;;;;;;15.40;99.90;;;;;;7340069;19;110288;-76
2022/09/17 08:53:14;;;;;;;;;;;15.40;99.90;;;;;;7343842;19;108401;-73
2022/09/17 08:55:59;;;;;;;;;;;15.60;99.90;;;;;;7339521;19;108761;-75
2022/09/17 08:58:54;;;;;;;;;;;15.60;99.90;;;;;;7338937;19;108496;-75
2022/09/17 09:01:24;;;;;;;;;;;15.50;99.90;;;;;;7335335;19;109215;-73
2022/09/17 09:03:54;;;;;;;;;;;15.50;99.90;;;;;;7341233;19;108244;-73
2022/09/17 09:06:25;;;;;;;;;;;15.60;99.90;;;;;;7339443;19;108526;-76
2022/09/17 09:08:58;;;;;;;;;;;15.60;99.90;;;;;;7339995;19;110436;-73
2022/09/17 09:11:29;;;;;;;;;;;15.60;99.90;;;;;;7339789;19;108549;-75
2022/09/17 09:14:00;;;;;;;;;;;15.60;99.90;;;;;;7340473;19;109269;-75
2022/09/17 09:16:28;;;;;;;;;;;15.50;99.90;;;;;;7343802;19;110477;-75
2022/09/17 09:18:58;;;;;;;;;;;15.60;99.90;;;;;;7341863;19;109673;-75
2022/09/17 09:21:28;;;;;;;;;;;15.70;99.90;;;;;;7339336;19;109282;-75
2022/09/17 09:24:14;;;;;;;;;;;15.80;99.90;;;;;;7337884;19;108606;-75
2022/09/17 09:26:45;;;;;;;;;;;16.00;99.90;;;;;;7337780;19;108542;-75
2022/09/17 09:29:31;;;;;;;;;;;16.00;99.90;;;;;;7339258;19;110493;-75
2022/09/17 09:32:16;;;;;;;;;;;16.00;99.90;;;;;;7340068;19;108873;-75
2022/09/17 09:34:45;;;;;;;;;;;16.00;99.90;;;;;;7340380;19;109375;-75
2022/09/17 09:37:23;;;;;;;;;;;15.90;99.90;;;;;;7340463;19;112192;-75
2022/09/17 09:39:52;;;;;;;;;;;16.00;99.90;;;;;;7345392;19;108853;-75
2022/09/17 09:42:19;;;;;;;;;;;16.00;99.90;;;;;;7339640;19;113182;-74
2022/09/17 09:44:46;;;;;;;;;;;15.90;99.90;;;;;;7339565;19;109575;-75
2022/09/17 09:47:25;;;;;;;;;;;15.80;99.90;;;;;;7339905;19;108660;-74
2022/09/17 09:49:55;;;;;;;;;;;15.90;99.90;;;;;;7338143;19;108931;-75
2022/09/17 09:52:28;;;;;;;;;;;15.90;99.90;;;;;;7336539;19;108353;-75
2022/09/17 09:55:20;;;;;;;;;;;15.90;99.90;;;;;;7336671;19;108812;-75
2022/09/17 09:58:04;;;;;;;;;;;15.90;99.90;;;;;;7339105;19;110490;-76
2022/09/17 10:00:36;;;;;;;;;;;15.90;99.90;;;;;;7338171;19;108543;-75
2022/09/17 10:03:09;;;;;;;;;;;15.90;99.90;;;;;;7342656;19;109015;-75
2022/09/17 10:05:36;;;;;;;;;;;15.90;99.90;;;;;;7338462;19;108796;-75
2022/09/17 10:08:10;;;;;;;;;;;15.90;99.90;;;;;;7337694;19;109623;-75
2022/09/17 10:11:00;;;;;;;;;;;16.00;99.90;;;;;;7339613;19;112827;-75
2022/09/17 10:13:29;;;;;;;;;;;16.10;99.90;;;;;;7343689;19;109269;-75
2022/09/17 10:15:56;;;;;;;;;;;16.30;99.90;;;;;;7344624;19;109204;-75
2022/09/17 10:18:24;;;;;;;;;;;16.40;99.90;;;;;;7344756;19;110100;-75
2022/09/17 10:20:52;;;;;;;;;;;16.50;99.90;;;;;;7341873;19;108503;-76
2022/09/17 10:23:20;;;;;;;;;;;16.50;99.90;;;;;;7345157;19;109594;-75
2022/09/17 10:25:47;;;;;;;;;;;16.40;99.90;;;;;;7349776;19;109157;-75
2022/09/17 10:28:34;;;;;;;;;;;16.50;99.90;;;;;;7345393;19;108968;-75
2022/09/17 10:31:08;;;;;;;;;;;16.50;99.90;;;;;;7345209;19;109325;-76
2022/09/17 10:33:59;;;;;;;;;;;16.50;99.90;;;;;;7343193;19;108760;-75
2022/09/17 10:36:37;;;;;;;;;;;16.40;99.90;;;;;;7343330;19;109161;-75
2022/09/17 10:39:33;;;;;;;;;;;16.40;99.90;;;;;;7344878;19;109501;-75
2022/09/17 10:42:04;;;;;;;;;;;16.30;99.90;;;;;;7342894;19;109122;-76
2022/09/17 10:44:32;;;;;;;;;;;16.20;99.90;;;;;;7344805;19;109532;-75
2022/09/17 10:47:13;;;;;;;;;;;16.00;99.90;;;;;;7342823;19;111177;-75
2022/09/17 10:49:42;;;;;;;;;;;15.90;99.90;;;;;;7347992;19;108190;-76
2022/09/17 10:52:29;;;;;;;;;;;15.90;99.90;;;;;;7341821;19;110614;-75
2022/09/17 10:55:14;;;;;;;;;;;16.00;99.90;;;;;;7344801;19;108856;-75
2022/09/17 10:57:41;;;;;;;;;;;16.10;99.90;;;;;;7345033;19;110815;-75
2022/09/17 11:00:14;;;;;;;;;;;16.10;99.90;;;;;;7341943;19;110235;-75
2022/09/17 11:02:57;;;;;;;;;;;16.10;99.90;;;;;;7342949;19;108652;-75
2022/09/17 11:05:27;;;;;;;;;;;16.20;99.90;;;;;;7343692;19;108897;-76
2022/09/17 11:08:02;;;;;;;;;;;16.30;99.90;;;;;;7343591;19;111393;-75
2022/09/17 11:10:34;;;;;;;;;;;16.30;99.90;;;;;;7349178;19;108985;-75
2022/09/17 11:13:06;;;;;;;;;;;16.30;99.90;;;;;;7342313;19;110376;-75
2022/09/17 11:15:52;;;;;;;;;;;16.40;99.90;;;;;;7345164;19;109743;-75
2022/09/17 11:18:28;;;;;;;;;;;16.40;99.90;;;;;;7345655;19;109089;-75
2022/09/17 11:20:55;;;;;;;;;;;16.40;99.90;;;;;;7342604;19;113379;-75
2022/09/17 11:23:25;;;;;;;;;;;16.50;99.90;;;;;;7340842;19;108398;-75
2022/09/17 11:26:01;;;;;;;;;;;16.40;99.90;;;;;;7344745;19;109123;-75
2022/09/17 11:28:27;;;;;;;;;;;16.30;99.90;;;;;;7345770;19;110353;-75
2022/09/17 11:31:00;;;;;;;;;;;16.30;99.90;;;;;;7344223;19;108876;-75
2022/09/17 11:33:42;;;;;;;;;;;16.20;99.90;;;;;;7348937;19;110039;-76
2022/09/17 11:36:29;;;;;;;;;;;16.10;99.90;;;;;;7343832;19;109626;-76
2022/09/17 11:38:58;;;;;;;;;;;15.90;99.90;;;;;;7343015;19;108280;-77
2022/09/17 11:41:45;;;;;;;;;;;15.70;99.90;;;;;;7341917;19;109284;-75
2022/09/17 11:44:14;;;;;;;;;;;15.70;99.90;;;;;;7341599;19;108836;-77
2022/09/17 11:46:46;;;;;;;;;;;15.50;99.90;;;;;;7344797;19;108784;-76
2022/09/17 11:49:24;;;;;;;;;;;15.40;99.90;;;;;;7344196;19;109862;-76
2022/09/17 11:52:11;;;;;;;;;;;15.50;99.90;;;;;;7343584;19;109997;-76
2022/09/17 11:54:38;;;;;;;;;;;15.40;99.90;;;;;;7341991;19;111412;-76
2022/09/17 11:57:40;;;;;;;;;;;15.40;99.90;;;;;;7347535;19;110696;-76
2022/09/17 12:00:13;;;;;;;;;;;15.40;99.90;;;;;;7338105;19;108608;-76
2022/09/17 12:02:40;;;;;;;;;;;15.30;99.90;;;;;;7338502;19;113142;-76
2022/09/17 12:05:16;;;;;;;;;;;15.30;99.90;;;;;;7337621;19;108709;-76
2022/09/17 12:08:01;;;;;;;;;;;15.30;99.90;;;;;;7338344;19;109923;-75
2022/09/17 12:10:30;;;;;;;;;;;15.40;99.90;;;;;;7336770;19;110716;-75
2022/09/17 12:13:01;;;;;;;;;;;15.50;99.90;;;;;;7339233;19;108923;-76
2022/09/17 12:15:30;;;;;;;;;;;15.60;99.90;;;;;;7336870;19;110022;-76
2022/09/17 12:18:23;;;;;;;;;;;15.70;99.90;;;;;;7337553;19;109740;-75
2022/09/17 12:21:00;;;;;;;;;;;15.90;99.90;;;;;;7343427;19;108969;-76
2022/09/17 12:23:37;;;;;;;;;;;16.00;99.90;;;;;;7337940;19;109228;-76
2022/09/17 12:26:24;;;;;;;;;;;16.10;99.90;;;;;;7337507;19;108446;-75
2022/09/17 12:29:10;;;;;;;;;;;16.30;99.90;;;;;;7338382;19;109212;-75
2022/09/17 12:32:03;;;;;;;;;;;16.50;99.90;;;;;;7338409;19;109960;-75
2022/09/17 12:34:40;;;;;;;;;;;16.70;99.90;;;;;;7336366;19;108818;-75
2022/09/17 12:37:13;;;;;;;;;;;17.00;99.90;;;;;;7342557;19;109506;-75
2022/09/17 12:39:49;;;;;;;;;;;17.20;99.90;;;;;;7339943;19;109373;-76
2022/09/17 12:42:21;;;;;;;;;;;17.40;99.90;;;;;;7341156;19;110405;-76
2022/09/17 12:44:51;;;;;;;;;;;17.70;99.90;;;;;;7347592;19;109253;-75
2022/09/17 12:47:18;;;;;;;;;;;17.90;99.90;;;;;;7342415;19;108342;-75
2022/09/17 12:50:00;;;;;;;;;;;18.10;99.90;;;;;;7339229;19;109135;-76
2022/09/17 12:52:30;;;;;;;;;;;18.30;99.90;;;;;;7340194;19;110116;-76
2022/09/17 12:55:11;;;;;;;;;;;18.50;99.90;;;;;;7340898;19;108665;-76
2022/09/17 12:57:49;;;;;;;;;;;18.70;99.90;;;;;;7342324;19;109133;-75
2022/09/17 13:00:16;;;;;;;;;;;18.70;99.90;;;;;;7340995;19;110321;-75
2022/09/17 13:02:55;;;;;;;;;;;19.00;99.90;;;;;;7343090;19;108729;-75
2022/09/17 13:05:31;;;;;;;;;;;19.10;99.90;;;;;;7344311;19;108894;-75
2022/09/17 13:08:11;;;;;;;;;;;19.00;99.90;;;;;;7340968;19;108717;-76
2022/09/17 13:10:44;;;;;;;;;;;18.70;99.90;;;;;;7339503;19;109715;-76
2022/09/17 13:13:10;;;;;;;;;;;18.40;99.90;;;;;;7339741;19;113449;-76
2022/09/17 13:15:40;;;;;;;;;;;17.80;99.90;;;;;;7341644;19;108537;-77
2022/09/17 13:18:07;;;;;;;;;;;17.50;99.90;;;;;;7340550;19;109513;-77
2022/09/17 13:21:02;;;;;;;;;;;17.50;99.90;;;;;;7340860;19;109343;-75
2022/09/17 13:23:40;;;;;;;;;;;17.50;99.90;;;;;;7340610;19;108997;-76
2022/09/17 13:26:07;;;;;;;;;;;17.40;99.90;;;;;;7340506;19;109139;-75
2022/09/17 13:28:35;;;;;;;;;;;17.30;99.90;;;;;;7344929;19;109305;-76
2022/09/17 13:31:03;;;;;;;;;;;17.30;99.90;;;;;;7340301;19;108610;-76
2022/09/17 13:33:51;;;;;;;;;;;17.30;99.90;;;;;;7339545;19;110158;-77
2022/09/17 13:36:37;;;;;;;;;;;17.40;99.90;;;;;;7339232;19;109393;-76
2022/09/17 13:39:05;;;;;;;;;;;17.40;99.90;;;;;;7339882;19;108921;-75
2022/09/17 13:41:34;;;;;;;;;;;17.60;99.90;;;;;;7339493;19;108946;-75
2022/09/17 13:44:04;;;;;;;;;;;17.60;99.90;;;;;;7338777;19;108590;-76
2022/09/17 13:46:35;;;;;;;;;;;17.80;99.90;;;;;;7339376;19;109378;-75
2022/09/17 13:49:04;;;;;;;;;;;18.00;99.90;;;;;;7338594;19;110282;-76
2022/09/17 13:51:31;;;;;;;;;;;18.20;99.90;;;;;;7345349;19;108800;-76
2022/09/17 13:54:00;;;;;;;;;;;18.40;99.90;;;;;;7339871;19;110259;-76
2022/09/17 13:56:37;;;;;;;;;;;18.50;99.90;;;;;;7339938;19;108954;-75
2022/09/17 13:59:06;;;;;;;;;;;18.70;99.90;;;;;;7340713;19;108664;-75
2022/09/17 14:01:52;;;;;;;;;;;18.80;99.90;;;;;;7338631;19;110224;-76
2022/09/17 14:04:38;;;;;;;;;;;18.60;99.90;;;;;;7338742;19;108783;-77
2022/09/17 14:07:19;;;;;;;;;;;18.40;99.90;;;;;;7340292;19;108318;-77